createdAt,value
2022-07-26T00:00:48.707Z,19.53
2022-07-26T00:01:48.841Z,19.53
2022-07-26T00:02:48.776Z,19.48
2022-07-26T00:03:48.626Z,19.36
2022-07-26T00:04:48.614Z,19.43
2022-07-26T00:05:48.596Z,19.40
2022-07-26T00:06:48.581Z,19.36
2022-07-26T00:07:48.560Z,19.35
2022-07-26T00:08:48.548Z,19.31
2022-07-26T00:09:48.709Z,19.28
2022-07-26T00:10:48.512Z,19.28
2022-07-26T00:11:48.497Z,19.32
2022-07-26T00:12:48.477Z,19.18
2022-07-26T00:13:48.461Z,19.21
2022-07-26T00:14:48.442Z,19.11
2022-07-26T00:15:48.427Z,19.08
2022-07-26T00:16:48.483Z,18.97
2022-07-26T00:17:48.394Z,18.97
2022-07-26T00:18:48.375Z,18.82
2022-07-26T00:19:48.366Z,18.77
2022-07-26T00:20:48.351Z,18.74
2022-07-26T00:21:48.326Z,18.76
2022-07-26T00:22:48.306Z,18.72
2022-07-26T00:23:48.285Z,18.72
2022-07-26T00:24:48.277Z,18.68
2022-07-26T00:25:48.262Z,18.59
2022-07-26T00:26:48.244Z,18.64
2022-07-26T00:27:48.235Z,18.65
2022-07-26T00:28:48.215Z,18.59
2022-07-26T00:29:48.193Z,18.57
2022-07-26T00:30:48.169Z,18.50
2022-07-26T00:31:48.197Z,18.54
2022-07-26T00:32:48.132Z,18.54
2022-07-26T00:33:48.129Z,18.47
2022-07-26T00:34:48.104Z,18.47
2022-07-26T00:35:48.081Z,18.44
2022-07-26T00:36:48.068Z,18.42
2022-07-26T00:37:48.059Z,18.43
2022-07-26T00:38:48.031Z,18.33
2022-07-26T00:39:48.016Z,18.40
2022-07-26T00:40:48.011Z,18.27
2022-07-26T00:41:47.975Z,18.24
2022-07-26T00:42:47.961Z,18.18
2022-07-26T00:43:47.962Z,18.19
2022-07-26T00:44:47.918Z,18.15
2022-07-26T00:45:47.992Z,18.13
2022-07-26T00:46:47.915Z,18.13
2022-07-26T00:47:47.871Z,18.06
2022-07-26T00:48:47.935Z,18.03
2022-07-26T00:49:47.836Z,17.99
2022-07-26T00:50:47.835Z,17.97
2022-07-26T00:51:47.797Z,17.87
2022-07-26T00:52:47.787Z,17.81
2022-07-26T00:53:47.765Z,17.85
2022-07-26T00:54:47.765Z,17.78
2022-07-26T00:55:47.738Z,17.71
2022-07-26T00:56:50.897Z,17.63
2022-07-26T00:57:47.689Z,17.59
2022-07-26T00:58:47.684Z,17.62
2022-07-26T00:59:47.695Z,17.50
2022-07-26T01:00:47.697Z,17.51
2022-07-26T01:01:47.754Z,17.46
2022-07-26T01:02:47.680Z,17.43
2022-07-26T01:03:47.586Z,17.48
2022-07-26T01:04:47.564Z,17.44
2022-07-26T01:05:47.545Z,17.41
2022-07-26T01:06:47.551Z,17.36
2022-07-26T01:07:47.509Z,17.35
2022-07-26T01:08:47.494Z,17.30
2022-07-26T01:09:47.473Z,17.29
2022-07-26T01:10:47.460Z,17.17
2022-07-26T01:11:47.442Z,17.13
2022-07-26T01:12:47.420Z,17.22
2022-07-26T01:13:47.403Z,17.15
2022-07-26T01:14:47.380Z,17.14
2022-07-26T01:15:47.435Z,17.13
2022-07-26T01:16:47.345Z,17.10
2022-07-26T01:17:47.328Z,17.14
2022-07-26T01:18:47.307Z,17.15
2022-07-26T01:19:47.306Z,17.17
2022-07-26T01:20:47.276Z,17.14
2022-07-26T01:21:47.256Z,17.11
2022-07-26T01:22:47.233Z,17.17
2022-07-26T01:23:47.227Z,17.18
2022-07-26T01:24:47.203Z,17.14
2022-07-26T01:25:48.569Z,17.17
2022-07-26T01:26:47.173Z,17.15
2022-07-26T01:27:47.150Z,17.18
2022-07-26T01:28:47.124Z,17.15
2022-07-26T01:29:47.105Z,17.18
2022-07-26T01:30:47.089Z,17.20
2022-07-26T01:31:47.152Z,17.14
2022-07-26T01:32:47.051Z,17.17
2022-07-26T01:33:47.036Z,17.15
2022-07-26T01:34:47.012Z,17.15
2022-07-26T01:35:47.017Z,17.14
2022-07-26T01:36:46.975Z,17.18
2022-07-26T01:37:46.975Z,17.20
2022-07-26T01:38:46.939Z,17.28
2022-07-26T01:39:46.917Z,17.32
2022-07-26T01:40:46.899Z,17.36
2022-07-26T01:41:46.882Z,17.26
2022-07-26T01:42:46.868Z,17.23
2022-07-26T01:43:46.847Z,17.40
2022-07-26T01:44:46.834Z,17.33
2022-07-26T01:45:46.901Z,17.44
2022-07-26T01:46:46.785Z,17.44
2022-07-26T01:47:46.767Z,17.41
2022-07-26T01:48:46.818Z,17.32
2022-07-26T01:49:46.734Z,17.38
2022-07-26T01:50:46.718Z,17.26
2022-07-26T01:51:46.693Z,17.46
2022-07-26T01:52:46.677Z,17.32
2022-07-26T01:53:46.658Z,17.40
2022-07-26T01:54:46.641Z,17.36
2022-07-26T01:55:46.622Z,17.33
2022-07-26T01:56:46.604Z,17.40
2022-07-26T01:57:46.587Z,17.32
2022-07-26T01:58:46.567Z,17.33
2022-07-26T01:59:46.550Z,17.29
2022-07-26T02:00:46.536Z,17.25
2022-07-26T02:01:46.774Z,17.17
2022-07-26T02:02:46.574Z,17.23
2022-07-26T02:03:46.479Z,17.11
2022-07-26T02:04:46.458Z,17.14
2022-07-26T02:05:46.433Z,17.15
2022-07-26T02:06:46.434Z,17.08
2022-07-26T02:07:46.401Z,17.08
2022-07-26T02:08:46.381Z,17.04
2022-07-26T02:09:46.364Z,16.99
2022-07-26T02:10:46.349Z,17.03
2022-07-26T02:11:46.330Z,16.96
2022-07-26T02:12:46.308Z,16.89
2022-07-26T02:13:51.249Z,16.93
2022-07-26T02:14:46.269Z,16.86
2022-07-26T02:15:46.286Z,16.89
2022-07-26T02:16:46.233Z,16.78
2022-07-26T02:17:46.215Z,16.70
2022-07-26T02:18:46.195Z,16.68
2022-07-26T02:19:46.185Z,16.71
2022-07-26T02:20:46.157Z,16.70
2022-07-26T02:21:46.150Z,16.70
2022-07-26T02:22:46.114Z,16.60
2022-07-26T02:23:46.099Z,16.56
2022-07-26T02:24:46.077Z,16.53
2022-07-26T02:25:46.069Z,16.48
2022-07-26T02:26:46.042Z,16.49
2022-07-26T02:27:46.029Z,16.42
2022-07-26T02:28:46.001Z,16.30
2022-07-26T02:29:45.992Z,16.38
2022-07-26T02:30:46.015Z,16.34
2022-07-26T02:31:48.274Z,16.35
2022-07-26T02:32:45.929Z,16.45
2022-07-26T02:33:45.923Z,16.49
2022-07-26T02:34:45.889Z,16.45
2022-07-26T02:35:45.872Z,16.45
2022-07-26T02:36:45.849Z,16.45
2022-07-26T02:37:45.862Z,16.48
2022-07-26T02:38:45.822Z,16.41
2022-07-26T02:39:45.801Z,16.45
2022-07-26T02:40:45.776Z,16.38
2022-07-26T02:41:45.763Z,16.44
2022-07-26T02:42:45.734Z,16.40
2022-07-26T02:43:45.720Z,16.42
2022-07-26T02:44:45.705Z,16.30
2022-07-26T02:45:45.692Z,16.50
2022-07-26T02:46:45.702Z,16.45
2022-07-26T02:47:45.669Z,16.49
2022-07-26T02:48:45.681Z,16.41
2022-07-26T02:49:45.607Z,16.48
2022-07-26T02:50:45.608Z,16.52
2022-07-26T02:51:45.566Z,16.50
2022-07-26T02:52:45.542Z,16.56
2022-07-26T02:53:45.531Z,16.63
2022-07-26T02:54:45.521Z,16.68
2022-07-26T02:55:45.507Z,16.68
2022-07-26T02:56:45.476Z,16.68
2022-07-26T02:57:46.859Z,16.77
2022-07-26T02:58:45.448Z,16.81
2022-07-26T02:59:45.410Z,16.83
2022-07-26T03:00:45.393Z,16.88
2022-07-26T03:01:45.451Z,16.83
2022-07-26T03:02:45.433Z,16.86
2022-07-26T03:03:50.425Z,16.96
2022-07-26T03:04:45.316Z,16.89
2022-07-26T03:05:45.307Z,16.96
2022-07-26T03:06:45.284Z,17.08
2022-07-26T03:07:45.255Z,17.10
2022-07-26T03:08:45.244Z,17.13
2022-07-26T03:09:45.222Z,17.17
2022-07-26T03:10:45.206Z,17.18
2022-07-26T03:11:45.203Z,17.26
2022-07-26T03:12:45.165Z,17.29
2022-07-26T03:13:45.152Z,17.38
2022-07-26T03:14:45.130Z,17.38
2022-07-26T03:15:45.145Z,17.29
2022-07-26T03:16:45.100Z,17.40
2022-07-26T03:17:45.071Z,17.36
2022-07-26T03:18:45.103Z,17.29
2022-07-26T03:19:45.036Z,17.38
2022-07-26T03:20:45.029Z,17.35
2022-07-26T03:21:45.001Z,17.46
2022-07-26T03:22:44.977Z,17.44
2022-07-26T03:23:44.961Z,17.33
2022-07-26T03:24:44.949Z,17.40
2022-07-26T03:25:44.925Z,17.43
2022-07-26T03:26:44.908Z,17.38
2022-07-26T03:27:44.900Z,17.44
2022-07-26T03:28:44.865Z,17.41
2022-07-26T03:29:44.848Z,17.48
2022-07-26T03:30:44.858Z,17.53
2022-07-26T03:31:44.824Z,17.50
2022-07-26T03:32:44.791Z,17.54
2022-07-26T03:33:44.776Z,17.69
2022-07-26T03:34:44.762Z,17.70
2022-07-26T03:35:44.802Z,17.69
2022-07-26T03:36:44.725Z,17.66
2022-07-26T03:37:45.047Z,17.64
2022-07-26T03:38:44.692Z,17.64
2022-07-26T03:39:44.668Z,17.59
2022-07-26T03:40:44.674Z,17.62
2022-07-26T03:41:44.644Z,17.59
2022-07-26T03:42:44.621Z,17.67
2022-07-26T03:43:44.591Z,17.62
2022-07-26T03:44:44.595Z,17.53
2022-07-26T03:45:44.593Z,17.59
2022-07-26T03:46:44.568Z,17.69
2022-07-26T03:47:44.548Z,17.66
2022-07-26T03:48:44.569Z,17.48
2022-07-26T03:49:44.486Z,17.59
2022-07-26T03:50:44.484Z,17.63
2022-07-26T03:51:44.449Z,17.64
2022-07-26T03:52:44.433Z,17.53
2022-07-26T03:53:44.411Z,17.64
2022-07-26T03:54:44.395Z,17.64
2022-07-26T03:55:44.373Z,17.62
2022-07-26T03:56:44.355Z,17.62
2022-07-26T03:57:44.346Z,17.62
2022-07-26T03:58:44.346Z,17.66
2022-07-26T03:59:44.305Z,17.55
2022-07-26T04:00:44.295Z,17.55
2022-07-26T04:01:44.326Z,17.64
2022-07-26T04:02:44.272Z,17.63
2022-07-26T04:03:47.561Z,17.53
2022-07-26T04:04:44.209Z,17.62
2022-07-26T04:05:48.619Z,17.62
2022-07-26T04:06:44.176Z,17.57
2022-07-26T04:07:52.802Z,17.63
2022-07-26T04:08:44.173Z,17.64
2022-07-26T04:09:44.121Z,17.55
2022-07-26T04:10:44.098Z,17.57
2022-07-26T04:11:44.086Z,17.63
2022-07-26T04:12:44.085Z,17.63
2022-07-26T04:13:44.046Z,17.64
2022-07-26T04:14:44.033Z,17.50
2022-07-26T04:15:44.015Z,17.69
2022-07-26T04:16:44.186Z,17.51
2022-07-26T04:17:43.982Z,17.53
2022-07-26T04:18:44.072Z,17.53
2022-07-26T04:19:43.938Z,17.51
2022-07-26T04:20:43.916Z,17.54
2022-07-26T04:21:43.895Z,17.53
2022-07-26T04:22:43.878Z,17.51
2022-07-26T04:23:49.207Z,17.51
2022-07-26T04:24:43.857Z,17.63
2022-07-26T04:25:43.823Z,17.50
2022-07-26T04:26:43.808Z,17.50
2022-07-26T04:27:43.801Z,17.62
2022-07-26T04:28:43.772Z,17.53
2022-07-26T04:29:43.752Z,17.62
2022-07-26T04:30:43.778Z,17.64
2022-07-26T04:31:43.714Z,17.69
2022-07-26T04:32:43.725Z,17.70
2022-07-26T04:33:43.690Z,17.71
2022-07-26T04:34:43.666Z,17.74
2022-07-26T04:35:43.645Z,17.78
2022-07-26T04:36:43.628Z,17.81
2022-07-26T04:37:43.608Z,17.82
2022-07-26T04:38:43.589Z,17.94
2022-07-26T04:39:43.568Z,17.94
2022-07-26T04:40:43.557Z,17.87
2022-07-26T04:41:43.539Z,17.97
2022-07-26T04:42:43.513Z,17.92
2022-07-26T04:43:43.497Z,17.97
2022-07-26T04:44:43.481Z,17.97
2022-07-26T04:45:43.590Z,18.04
2022-07-26T04:46:44.942Z,18.03
2022-07-26T04:47:43.426Z,18.07
2022-07-26T04:48:43.451Z,18.12
2022-07-26T04:49:43.394Z,18.12
2022-07-26T04:50:43.366Z,18.25
2022-07-26T04:51:43.353Z,18.25
2022-07-26T04:52:43.348Z,18.19
2022-07-26T04:53:43.313Z,18.28
2022-07-26T04:54:43.299Z,18.31
2022-07-26T04:55:43.280Z,18.33
2022-07-26T04:56:43.258Z,18.36
2022-07-26T04:57:43.246Z,18.42
2022-07-26T04:58:43.226Z,18.42
2022-07-26T04:59:43.214Z,18.42
2022-07-26T05:01:08.599Z,18.40
2022-07-26T05:01:43.265Z,18.49
2022-07-26T05:02:43.195Z,18.59
2022-07-26T05:03:43.666Z,18.59
2022-07-26T05:04:43.130Z,18.57
2022-07-26T05:05:43.100Z,18.65
2022-07-26T05:06:43.089Z,18.73
2022-07-26T05:07:43.069Z,18.67
2022-07-26T05:08:43.058Z,18.67
2022-07-26T05:09:43.043Z,18.80
2022-07-26T05:10:44.973Z,18.95
2022-07-26T05:11:42.997Z,19.10
2022-07-26T05:12:42.994Z,19.20
2022-07-26T05:13:42.968Z,19.40
2022-07-26T05:14:42.981Z,19.53
2022-07-26T05:15:42.992Z,19.66
2022-07-26T05:16:44.220Z,19.73
2022-07-26T05:17:43.130Z,19.84
2022-07-26T05:18:45.909Z,20.03
2022-07-26T05:19:46.185Z,20.21
2022-07-26T05:20:42.841Z,20.30
2022-07-26T05:21:42.822Z,20.30
2022-07-26T05:22:42.823Z,20.47
2022-07-26T05:23:42.795Z,20.49
2022-07-26T05:24:42.774Z,20.61
2022-07-26T05:25:42.764Z,20.51
2022-07-26T05:26:42.744Z,20.54
2022-07-26T05:27:42.722Z,20.62
2022-07-26T05:28:42.716Z,20.51
2022-07-26T05:29:42.687Z,20.56
2022-07-26T05:30:42.706Z,20.69
2022-07-26T05:31:42.691Z,20.65
2022-07-26T05:32:42.646Z,20.74
2022-07-26T05:33:42.625Z,20.74
2022-07-26T05:34:42.611Z,20.72
2022-07-26T05:35:42.589Z,20.76
2022-07-26T05:36:42.637Z,20.69
2022-07-26T05:37:42.567Z,20.74
2022-07-26T05:38:42.545Z,20.83
2022-07-26T05:39:42.528Z,20.79
2022-07-26T05:40:44.854Z,20.83
2022-07-26T05:41:42.500Z,20.76
2022-07-26T05:42:42.498Z,20.74
2022-07-26T05:43:42.465Z,20.74
2022-07-26T05:44:42.936Z,20.69
2022-07-26T05:45:42.470Z,20.76
2022-07-26T05:46:42.441Z,20.66
2022-07-26T05:47:42.402Z,20.74
2022-07-26T05:48:42.392Z,20.65
2022-07-26T05:49:42.372Z,20.68
2022-07-26T05:50:42.356Z,20.66
2022-07-26T05:51:42.333Z,20.64
2022-07-26T05:52:42.317Z,20.53
2022-07-26T05:53:42.317Z,20.58
2022-07-26T05:54:42.283Z,20.54
2022-07-26T05:55:42.273Z,20.53
2022-07-26T05:56:42.254Z,20.59
2022-07-26T05:57:42.282Z,20.56
2022-07-26T05:58:42.238Z,20.61
2022-07-26T05:59:42.215Z,20.65
2022-07-26T06:00:46.740Z,20.68
2022-07-26T06:01:42.183Z,20.72
2022-07-26T06:02:42.226Z,20.71
2022-07-26T06:03:42.136Z,20.76
2022-07-26T06:04:42.174Z,20.71
2022-07-26T06:05:42.106Z,20.69
2022-07-26T06:06:42.103Z,20.59
2022-07-26T06:07:42.080Z,20.49
2022-07-26T06:08:42.055Z,20.39
2022-07-26T06:09:42.042Z,20.39
2022-07-26T06:10:42.021Z,20.47
2022-07-26T06:11:42.010Z,20.46
2022-07-26T06:12:41.985Z,20.59
2022-07-26T06:13:41.981Z,20.69
2022-07-26T06:14:41.956Z,20.79
2022-07-26T06:15:41.966Z,20.89
2022-07-26T06:16:42.017Z,20.99
2022-07-26T06:17:41.912Z,20.91
2022-07-26T06:18:41.934Z,20.95
2022-07-26T06:19:47.098Z,21.01
2022-07-26T06:20:41.857Z,21.01
2022-07-26T06:21:41.846Z,20.87
2022-07-26T06:22:41.831Z,20.87
2022-07-26T06:23:41.837Z,20.93
2022-07-26T06:24:41.791Z,21.05
2022-07-26T06:25:41.777Z,20.91
2022-07-26T06:26:41.765Z,20.95
2022-07-26T06:27:41.744Z,20.96
2022-07-26T06:28:41.732Z,20.89
2022-07-26T06:29:41.717Z,21.11
2022-07-26T06:30:41.692Z,21.14
2022-07-26T06:31:41.716Z,21.09
2022-07-26T06:32:41.689Z,21.02
2022-07-26T06:33:41.645Z,21.11
2022-07-26T06:34:41.630Z,21.08
2022-07-26T06:35:41.614Z,21.21
2022-07-26T06:36:41.606Z,21.24
2022-07-26T06:37:41.579Z,21.32
2022-07-26T06:38:41.561Z,21.29
2022-07-26T06:39:41.548Z,21.34
2022-07-26T06:40:41.538Z,21.23
2022-07-26T06:41:41.518Z,21.32
2022-07-26T06:42:41.499Z,21.44
2022-07-26T06:43:41.482Z,21.53
2022-07-26T06:44:41.466Z,21.35
2022-07-26T06:45:41.558Z,21.20
2022-07-26T06:46:41.429Z,21.41
2022-07-26T06:47:41.413Z,21.45
2022-07-26T06:48:41.461Z,21.36
2022-07-26T06:49:41.404Z,21.53
2022-07-26T06:50:41.370Z,21.48
2022-07-26T06:51:41.363Z,21.60
2022-07-26T06:52:41.346Z,21.60
2022-07-26T06:53:41.324Z,21.48
2022-07-26T06:54:41.338Z,21.41
2022-07-26T06:55:41.290Z,21.46
2022-07-26T06:56:41.303Z,21.51
2022-07-26T06:57:44.935Z,21.50
2022-07-26T06:58:41.237Z,21.59
2022-07-26T06:59:41.230Z,21.64
2022-07-26T07:00:41.253Z,21.72
2022-07-26T07:01:59.442Z,21.72
2022-07-26T07:02:41.176Z,21.57
2022-07-26T07:03:41.182Z,21.61
2022-07-26T07:04:41.179Z,21.67
2022-07-26T07:05:41.126Z,21.60
2022-07-26T07:06:41.123Z,21.64
2022-07-26T07:07:42.667Z,21.75
2022-07-26T07:08:41.104Z,21.78
2022-07-26T07:09:41.075Z,21.83
2022-07-26T07:10:41.072Z,21.85
2022-07-26T07:11:41.041Z,22.01
2022-07-26T07:12:41.084Z,22.13
2022-07-26T07:13:41.020Z,22.06
2022-07-26T07:14:40.984Z,22.19
2022-07-26T07:15:40.980Z,22.19
2022-07-26T07:16:41.032Z,22.57
2022-07-26T07:17:40.949Z,22.78
2022-07-26T07:18:40.950Z,22.87
2022-07-26T07:19:40.911Z,23.24
2022-07-26T07:20:40.892Z,23.61
2022-07-26T07:21:40.886Z,24.01
2022-07-26T07:22:40.863Z,24.29
2022-07-26T07:23:40.848Z,24.53
2022-07-26T07:24:40.875Z,24.47
2022-07-26T07:25:40.824Z,24.14
2022-07-26T07:26:40.827Z,24.07
2022-07-26T07:27:40.785Z,24.02
2022-07-26T07:28:40.768Z,23.97
2022-07-26T07:29:41.115Z,23.61
2022-07-26T07:30:40.733Z,23.38
2022-07-26T07:31:49.033Z,23.67
2022-07-26T07:32:40.774Z,23.94
2022-07-26T07:33:52.670Z,23.85
2022-07-26T07:34:40.678Z,24.12
2022-07-26T07:35:40.666Z,24.16
2022-07-26T07:36:40.657Z,23.23
2022-07-26T07:37:52.864Z,22.60
2022-07-26T07:38:42.812Z,22.93
2022-07-26T07:39:40.607Z,23.32
2022-07-26T07:40:40.590Z,22.77
2022-07-26T07:41:40.597Z,22.43
2022-07-26T07:42:40.566Z,22.39
2022-07-26T07:43:40.553Z,22.35
2022-07-26T07:44:40.537Z,22.04
2022-07-26T07:45:40.518Z,22.10
2022-07-26T07:46:40.587Z,21.99
2022-07-26T07:47:40.492Z,22.07
2022-07-26T07:48:46.647Z,21.91
2022-07-26T07:49:40.469Z,21.92
2022-07-26T07:50:40.451Z,21.81
2022-07-26T07:51:40.449Z,21.69
2022-07-26T07:52:40.443Z,21.69
2022-07-26T07:53:40.400Z,22.47
2022-07-26T07:54:40.395Z,23.09
2022-07-26T07:55:43.966Z,23.14
2022-07-26T07:56:40.379Z,22.90
2022-07-26T07:57:40.345Z,22.87
2022-07-26T07:58:40.336Z,23.39
2022-07-26T07:59:40.315Z,23.94
2022-07-26T08:00:40.343Z,24.44
2022-07-26T08:01:41.111Z,24.49
2022-07-26T08:02:40.284Z,24.23
2022-07-26T08:03:40.304Z,24.38
2022-07-26T08:04:40.280Z,24.56
2022-07-26T08:05:40.230Z,25.05
2022-07-26T08:06:40.918Z,24.98
2022-07-26T08:07:40.200Z,24.35
2022-07-26T08:08:40.193Z,24.29
2022-07-26T08:09:43.072Z,24.47
2022-07-26T08:10:49.159Z,25.20
2022-07-26T08:11:41.808Z,25.65
2022-07-26T08:12:40.139Z,25.09
2022-07-26T08:13:42.405Z,25.16
2022-07-26T08:14:40.105Z,25.35
2022-07-26T08:15:40.133Z,25.68
2022-07-26T08:16:40.186Z,25.82
2022-07-26T08:17:41.787Z,25.99
2022-07-26T08:18:55.729Z,26.20
2022-07-26T08:19:42.329Z,26.28
2022-07-26T08:20:40.026Z,26.61
2022-07-26T08:21:40.021Z,26.35
2022-07-26T08:22:40.002Z,26.36
2022-07-26T08:23:39.987Z,26.29
2022-07-26T08:24:39.982Z,25.91
2022-07-26T08:25:50.088Z,26.43
2022-07-26T08:26:39.954Z,26.36
2022-07-26T08:27:41.148Z,25.79
2022-07-26T08:28:48.363Z,25.38
2022-07-26T08:29:39.915Z,25.16
2022-07-26T08:30:39.901Z,25.27
2022-07-26T08:31:40.001Z,25.34
2022-07-26T08:32:39.877Z,25.65
2022-07-26T08:33:40.885Z,24.91
2022-07-26T08:34:39.851Z,25.24
2022-07-26T08:35:39.861Z,25.50
2022-07-26T08:36:54.915Z,25.32
2022-07-26T08:37:39.814Z,25.34
2022-07-26T08:38:39.825Z,25.34
2022-07-26T08:39:39.795Z,25.46
2022-07-26T08:40:39.790Z,25.44
2022-07-26T08:41:39.764Z,25.83
2022-07-26T08:42:39.765Z,26.25
2022-07-26T08:43:50.617Z,26.01
2022-07-26T08:44:39.743Z,26.06
2022-07-26T08:45:39.717Z,26.55
2022-07-26T08:46:39.759Z,26.89
2022-07-26T08:47:55.260Z,27.10
2022-07-26T08:48:39.743Z,27.11
2022-07-26T08:49:39.683Z,27.10
2022-07-26T08:50:39.666Z,27.04
2022-07-26T08:51:39.666Z,26.94
2022-07-26T08:52:39.645Z,26.80
2022-07-26T08:53:39.630Z,27.02
2022-07-26T08:54:39.615Z,27.47
2022-07-26T08:56:06.313Z,27.35
2022-07-26T08:56:39.598Z,26.59
2022-07-26T08:57:39.580Z,26.61
2022-07-26T08:58:39.569Z,27.09
2022-07-26T08:59:39.565Z,27.20
2022-07-26T09:00:39.585Z,25.89
2022-07-26T09:01:39.541Z,24.94
2022-07-26T09:02:39.527Z,24.05
2022-07-26T09:03:39.605Z,23.87
2022-07-26T09:04:44.510Z,23.39
2022-07-26T09:05:39.494Z,23.22
2022-07-26T09:06:39.485Z,23.17
2022-07-26T09:07:39.477Z,23.09
2022-07-26T09:08:39.461Z,23.61
2022-07-26T09:09:39.446Z,24.76
2022-07-26T09:10:39.536Z,25.31
2022-07-26T09:11:39.432Z,24.95
2022-07-26T09:12:39.414Z,24.71
2022-07-26T09:13:39.397Z,24.17
2022-07-26T09:14:39.410Z,24.49
2022-07-26T09:15:39.379Z,24.92
2022-07-26T09:16:40.204Z,25.25
2022-07-26T09:17:39.352Z,25.87
2022-07-26T09:18:39.375Z,26.67
2022-07-26T09:19:39.323Z,26.94
2022-07-26T09:20:39.328Z,27.35
2022-07-26T09:21:39.300Z,27.61
2022-07-26T09:22:39.295Z,27.77
2022-07-26T09:23:39.279Z,27.89
2022-07-26T09:24:39.301Z,27.91
2022-07-26T09:25:39.257Z,28.04
2022-07-26T09:26:39.244Z,28.07
2022-07-26T09:27:39.231Z,28.07
2022-07-26T09:28:45.186Z,27.62
2022-07-26T09:29:39.212Z,26.89
2022-07-26T09:30:39.200Z,26.67
2022-07-26T09:31:39.315Z,27.04
2022-07-26T09:32:39.176Z,27.20
2022-07-26T09:33:39.164Z,26.95
2022-07-26T09:34:48.078Z,26.52
2022-07-26T09:35:50.925Z,26.57
2022-07-26T09:36:39.131Z,26.50
2022-07-26T09:37:39.122Z,26.89
2022-07-26T09:38:39.111Z,27.64
2022-07-26T09:39:39.102Z,27.91
2022-07-26T09:40:39.087Z,27.62
2022-07-26T09:41:39.085Z,27.70
2022-07-26T09:42:39.081Z,28.01
2022-07-26T09:43:39.053Z,28.09
2022-07-26T09:44:39.051Z,27.91
2022-07-26T09:45:39.046Z,27.23
2022-07-26T09:46:39.102Z,26.25
2022-07-26T09:47:39.018Z,25.94
2022-07-26T09:49:09.527Z,25.83
2022-07-26T09:49:40.426Z,25.90
2022-07-26T09:50:39.034Z,25.84
2022-07-26T09:51:38.979Z,26.61
2022-07-26T09:52:38.972Z,26.92
2022-07-26T09:53:38.968Z,27.29
2022-07-26T09:54:38.952Z,27.95
2022-07-26T09:55:44.662Z,27.82
2022-07-26T09:56:38.926Z,27.54
2022-07-26T09:57:38.924Z,27.11
2022-07-26T09:58:38.907Z,26.47
2022-07-26T09:59:38.892Z,26.06
2022-07-26T10:00:38.891Z,26.18
2022-07-26T10:01:38.965Z,26.55
2022-07-26T10:02:38.899Z,27.36
2022-07-26T10:03:38.853Z,27.69
2022-07-26T10:04:38.847Z,27.98
2022-07-26T10:05:38.851Z,27.80
2022-07-26T10:06:38.840Z,27.62
2022-07-26T10:07:38.835Z,27.36
2022-07-26T10:08:38.818Z,27.73
2022-07-26T10:09:38.826Z,28.09
2022-07-26T10:10:38.802Z,28.68
2022-07-26T10:11:38.782Z,28.88
2022-07-26T10:12:38.775Z,28.41
2022-07-26T10:13:38.774Z,27.80
2022-07-26T10:14:38.781Z,26.98
2022-07-26T10:15:38.878Z,26.29
2022-07-26T10:16:38.736Z,25.65
2022-07-26T10:17:38.728Z,25.30
2022-07-26T10:18:39.199Z,25.37
2022-07-26T10:19:41.640Z,25.82
2022-07-26T10:20:38.704Z,26.36
2022-07-26T10:21:38.686Z,27.14
2022-07-26T10:22:38.679Z,27.73
2022-07-26T10:23:38.675Z,27.94
2022-07-26T10:24:38.660Z,28.44
2022-07-26T10:25:38.708Z,28.16
2022-07-26T10:26:38.656Z,28.21
2022-07-26T10:27:38.646Z,28.26
2022-07-26T10:28:38.618Z,28.65
2022-07-26T10:29:38.624Z,28.41
2022-07-26T10:30:38.718Z,28.04
2022-07-26T10:31:38.763Z,28.17
2022-07-26T10:32:38.616Z,28.25
2022-07-26T10:33:38.636Z,28.85
2022-07-26T10:35:38.592Z,28.84
2022-07-26T10:36:38.554Z,28.48
2022-07-26T10:37:38.557Z,29.07
2022-07-26T10:38:38.545Z,28.56
2022-07-26T10:39:38.534Z,27.80
2022-07-26T10:40:38.532Z,26.96
2022-07-26T10:41:38.531Z,26.92
2022-07-26T10:42:38.515Z,27.14
2022-07-26T10:43:41.089Z,27.73
2022-07-26T10:44:38.513Z,28.13
2022-07-26T10:45:38.529Z,28.36
2022-07-26T10:46:38.593Z,27.88
2022-07-26T10:47:38.542Z,27.69
2022-07-26T10:48:38.523Z,27.28
2022-07-26T10:49:38.535Z,27.06
2022-07-26T10:50:38.451Z,26.99
2022-07-26T10:51:38.481Z,26.68
2022-07-26T10:52:38.438Z,26.28
2022-07-26T10:53:38.502Z,26.05
2022-07-26T10:54:38.433Z,26.04
2022-07-26T10:55:38.421Z,26.25
2022-07-26T10:56:38.419Z,26.35
2022-07-26T10:57:38.397Z,26.39
2022-07-26T10:58:38.388Z,27.11
2022-07-26T10:59:55.529Z,27.48
2022-07-26T11:00:38.372Z,27.62
2022-07-26T11:01:38.437Z,27.61
2022-07-26T11:02:38.441Z,27.70
2022-07-26T11:03:38.893Z,27.95
2022-07-26T11:04:38.343Z,28.16
2022-07-26T11:05:38.336Z,27.48
2022-07-26T11:06:38.385Z,27.10
2022-07-26T11:07:38.374Z,26.74
2022-07-26T11:08:38.321Z,26.52
2022-07-26T11:09:38.314Z,26.49
2022-07-26T11:10:38.320Z,26.20
2022-07-26T11:11:38.289Z,26.22
2022-07-26T11:12:38.283Z,26.18
2022-07-26T11:13:38.288Z,26.27
2022-07-26T11:14:38.267Z,26.49
2022-07-26T11:15:38.316Z,26.59
2022-07-26T11:16:38.284Z,26.61
2022-07-26T11:17:38.238Z,26.62
2022-07-26T11:18:38.246Z,26.25
2022-07-26T11:19:38.232Z,26.27
2022-07-26T11:20:38.219Z,26.37
2022-07-26T11:21:38.255Z,26.49
2022-07-26T11:22:38.198Z,26.17
2022-07-26T11:23:38.191Z,25.97
2022-07-26T11:24:38.180Z,25.97
2022-07-26T11:25:38.170Z,25.69
2022-07-26T11:26:38.161Z,25.31
2022-07-26T11:27:38.155Z,25.39
2022-07-26T11:28:38.167Z,25.37
2022-07-26T11:29:41.240Z,25.31
2022-07-26T11:30:38.131Z,25.13
2022-07-26T11:31:52.004Z,25.32
2022-07-26T11:32:39.114Z,25.30
2022-07-26T11:33:38.102Z,25.39
2022-07-26T11:34:38.087Z,25.37
2022-07-26T11:35:38.079Z,25.62
2022-07-26T11:36:38.065Z,25.61
2022-07-26T11:37:38.049Z,25.74
2022-07-26T11:38:38.051Z,25.69
2022-07-26T11:39:38.029Z,25.65
2022-07-26T11:40:38.027Z,25.61
2022-07-26T11:41:38.026Z,25.57
2022-07-26T11:42:38.007Z,25.67
2022-07-26T11:43:38.007Z,25.77
2022-07-26T11:44:37.983Z,25.68
2022-07-26T11:45:37.971Z,25.80
2022-07-26T11:46:38.097Z,26.43
2022-07-26T11:47:37.951Z,26.77
2022-07-26T11:48:37.995Z,26.89
2022-07-26T11:50:12.490Z,27.39
2022-07-26T11:50:37.919Z,27.61
2022-07-26T11:51:37.914Z,27.76
2022-07-26T11:52:37.904Z,27.85
2022-07-26T11:53:37.935Z,27.96
2022-07-26T11:54:37.903Z,27.73
2022-07-26T11:55:38.054Z,27.59
2022-07-26T11:56:37.905Z,27.50
2022-07-26T11:57:37.865Z,27.85
2022-07-26T11:58:37.868Z,28.07
2022-07-26T11:59:37.864Z,28.06
2022-07-26T12:00:37.852Z,28.29
2022-07-26T12:01:37.851Z,28.47
2022-07-26T12:02:37.852Z,28.81
2022-07-26T12:03:37.915Z,29.22
2022-07-26T12:04:38.022Z,29.35
2022-07-26T12:05:37.908Z,29.41
2022-07-26T12:06:37.831Z,29.49
2022-07-26T12:07:37.832Z,29.16
2022-07-26T12:08:37.816Z,29.25
2022-07-26T12:09:37.816Z,29.43
2022-07-26T12:10:37.825Z,28.85
2022-07-26T12:11:37.832Z,28.90
2022-07-26T12:12:37.809Z,28.80
2022-07-26T12:13:39.765Z,28.53
2022-07-26T12:14:37.810Z,28.23
2022-07-26T12:15:37.842Z,27.74
2022-07-26T12:16:37.798Z,27.39
2022-07-26T12:17:37.795Z,27.02
2022-07-26T12:18:37.783Z,26.61
2022-07-26T12:19:37.781Z,26.55
2022-07-26T12:20:37.778Z,26.37
2022-07-26T12:21:37.769Z,26.35
2022-07-26T12:22:37.767Z,26.47
2022-07-26T12:23:37.761Z,26.40
2022-07-26T12:24:37.753Z,26.42
2022-07-26T12:25:37.752Z,26.18
2022-07-26T12:26:37.739Z,26.18
2022-07-26T12:27:37.731Z,26.15
2022-07-26T12:28:37.722Z,26.25
2022-07-26T12:29:37.716Z,26.20
2022-07-26T12:30:37.772Z,26.29
2022-07-26T12:31:37.758Z,26.35
2022-07-26T12:32:37.710Z,26.20
2022-07-26T12:33:37.698Z,26.28
2022-07-26T12:34:37.683Z,26.32
2022-07-26T12:35:37.661Z,26.25
2022-07-26T12:36:37.659Z,26.32
2022-07-26T12:37:40.598Z,26.37
2022-07-26T12:38:37.640Z,26.35
2022-07-26T12:39:37.630Z,26.28
2022-07-26T12:40:37.614Z,26.20
2022-07-26T12:41:37.667Z,26.04
2022-07-26T12:42:37.605Z,25.98
2022-07-26T12:43:37.623Z,25.94
2022-07-26T12:44:37.593Z,25.91
2022-07-26T12:45:37.582Z,26.02
2022-07-26T12:46:37.677Z,25.84
2022-07-26T12:47:37.554Z,25.98
2022-07-26T12:48:37.607Z,25.93
2022-07-26T12:49:37.534Z,26.04
2022-07-26T12:50:37.537Z,26.01
2022-07-26T12:51:37.528Z,26.17
2022-07-26T12:52:37.502Z,26.18
2022-07-26T12:53:37.491Z,26.20